Latest Weather Observations for Proserpine

IDQ60801

Issued at 6:06 pm EST Thursday 5 March 2015 (issued every 30 minutes, with the page automatically refreshed every 10 minutes)

About weather observations | Map of weather stations | Latest weather observations for QLD | Other Formats
Station Details ID: 033247 Name: PROSERPINE AIRPORT Lat: -20.49 Lon: 148.56 Height: 19.7 m
Data from the previous 72 hours. | See also: Recent months at Proserpine
Date/Time
EST
Temp
°C
App
Temp
°C
Dew
Point
Rel
Hum
%
Delta-T
°C
Wind Press
QNH
hPa
Press
MSL
hPa
Rain
since 9 am
mm
Dir
 
Spd
km/h
Gust
km/h
Spd
kts
Gust
kts
05/06:00pm 28.1 31.1 21.9 69 4.2 ESE 9 13 5 7 1006.0 1005.9 0.0
05/05:30pm 29.2 31.5 21.4 63 5.2 ESE 11 13 6 7 1005.8 1005.7 0.0
05/05:00pm 30.1 31.9 20.4 56 6.4 SE 11 15 6 8 1005.9 1005.8 0.0
05/04:30pm 31.3 32.8 20.6 53 7.1 SE 13 17 7 9 1005.8 1005.7 0.0
05/04:00pm 31.0 33.2 21.2 56 6.6 ESE 11 19 6 10 1006.1 1006.0 0.0
05/03:30pm 31.1 33.1 20.7 54 6.9 E 11 13 6 7 1006.4 1006.3 0.0
05/03:00pm 30.9 32.2 20.2 53 7.1 E 13 15 7 8 1006.7 1006.6 0.0
05/02:30pm 31.8 32.3 20.1 50 7.8 E 17 22 9 12 1007.2 1007.1 0.0
05/02:00pm 32.9 33.8 20.8 49 8.1 ESE 17 26 9 14 1007.8 1007.7 0.0
05/01:30pm 32.6 33.2 20.2 48 8.3 E 17 26 9 14 1008.2 1008.1 0.0
05/01:00pm 32.4 33.2 21.3 52 7.5 SE 19 28 10 15 1008.6 1008.5 0.0
05/12:30pm 31.7 32.8 21.2 53 7.1 ESE 17 26 9 14 1009.1 1009.0 0.0
05/12:00pm 31.4 32.9 21.3 55 6.8 SE 15 22 8 12 1009.7 1009.6 0.0
05/11:30am 31.4 33.0 20.7 53 7.1 ESE 13 19 7 10 1010.2 1010.1 0.0
05/11:00am 31.2 33.5 22.8 61 5.8 SE 15 22 8 12 1010.7 1010.6 0.0
05/10:30am 30.0 33.4 22.7 65 5.0 ESE 9 17 5 9 1011.2 1011.1 0.0
05/10:00am 29.1 32.3 23.1 70 4.1 E 11 15 6 8 1011.5 1011.4 0.0
05/09:30am 29.6 33.0 23.3 69 4.3 ESE 11 19 6 10 1011.4 1011.3 0.0
05/09:00am 29.3 31.9 23.3 70 4.1 ESE 15 19 8 10 1011.3 1011.2 0.0
05/08:51am 28.5 31.2 23.4 74 3.5 SE 15 20 8 11 1011.2 1011.1 0.0
05/08:33am 28.0 32.0 23.8 78 2.9 SSE 9 13 5 7 1011.2 1011.1 0.0
05/08:30am 27.8 31.6 23.4 77 3.0 SSE 9 13 5 7 1011.2 1011.1 0.0
05/08:06am 28.0 32.3 23.6 77 3.0 SSE 7 13 4 7 1011.2 1011.1 0.0
05/08:00am 27.5 31.6 23.3 78 2.9 SSE 7 13 4 7 1011.1 1011.0 0.0
05/07:30am 26.5 30.2 23.2 82 2.2 SSE 9 13 5 7 1010.7 1010.6 0.0
05/07:00am 24.8 28.7 23.0 90 1.2 SSW 7 11 4 6 1010.2 1010.1 0.0
05/06:30am 23.4 27.0 22.4 94 0.7 SSW 7 7 4 4 1010.0 1009.9 0.0
05/06:00am 23.1 26.7 22.1 94 0.7 S 6 9 3 5 1009.7 1009.6 0.0
05/05:30am 23.3 26.5 22.3 94 0.7 SSW 9 9 5 5 1009.2 1009.1 0.0
05/05:00am 23.4 26.6 22.4 94 0.7 SSW 9 11 5 6 1009.0 1008.9 0.0
05/04:30am 23.5 26.7 22.3 93 0.8 SSW 9 11 5 6 1008.9 1008.8 0.0
05/04:00am 23.7 26.9 22.3 92 0.9 SSW 9 11 5 6 1009.0 1008.9 0.0
05/03:30am 23.9 27.1 22.3 91 1.1 S 9 11 5 6 1009.0 1008.9 0.0
05/03:00am 24.0 27.2 22.3 90 1.1 S 9 9 5 5 1009.3 1009.2 0.0
05/02:30am 24.0 26.9 22.4 91 1.1 S 11 13 6 7 1009.6 1009.5 0.0
05/02:00am 24.1 27.3 22.4 90 1.1 SSW 9 11 5 6 1010.0 1009.9 0.0
05/01:30am 24.6 28.0 22.7 89 1.3 S 9 13 5 7 1010.3 1010.2 0.0
05/01:00am 24.4 27.7 22.5 89 1.3 SSW 9 11 5 6 1010.4 1010.3 0.0
05/12:30am 25.0 28.3 22.5 86 1.7 SSE 9 11 5 6 1010.8 1010.7 0.0
05/12:00am 25.0 28.4 22.7 87 1.6 S 9 15 5 8 1011.0 1010.9 0.0
 
Date/Time
EST
Temp
°C
App
Temp
°C
Dew
Point
Rel
Hum
%
Delta-T
°C
Wind Press
QNH
hPa
Press
MSL
hPa
Rain
since 9 am
mm
Dir
 
Spd
km/h
Gust
km/h
Spd
kts
Gust
kts
04/11:30pm 25.0 28.1 22.9 88 1.4 SSW 11 13 6 7 1011.3 1011.2 0.0
04/11:00pm 25.3 28.8 22.8 86 1.7 S 9 13 5 7 1011.6 1011.5 0.0
04/10:30pm 25.6 29.1 22.9 85 1.8 S 9 13 5 7 1011.7 1011.6 0.0
04/10:00pm 25.9 30.0 23.2 85 1.8 S 7 11 4 6 1011.8 1011.7 0.0
04/09:30pm 26.4 30.8 23.5 84 2.0 ESE 6 9 3 5 1011.9 1011.8 0.0
04/09:00pm 26.2 29.4 23.1 83 2.1 ESE 11 15 6 8 1011.7 1011.6 0.0
04/08:30pm 26.3 29.9 23.8 86 1.7 ESE 11 17 6 9 1011.3 1011.2 0.0
04/08:00pm 26.0 29.4 23.3 85 1.8 ESE 11 15 6 8 1011.1 1011.0 0.0
04/07:30pm 26.1 29.3 23.0 83 2.1 ESE 11 15 6 8 1010.7 1010.6 0.0
04/07:00pm 26.4 29.9 22.9 81 2.4 ESE 9 13 5 7 1010.5 1010.4 0.0
04/06:30pm 27.0 29.9 22.4 76 3.1 ESE 11 15 6 8 1010.2 1010.1 0.0
04/06:00pm 28.0 29.2 22.2 70 3.9 ESE 19 26 10 14 1010.1 1010.0 0.0
04/05:30pm 28.8 30.0 22.5 68 4.3 ESE 20 28 11 15 1009.9 1009.8 0.0
04/05:00pm 29.3 30.3 22.8 68 4.4 ESE 22 32 12 17 1009.8 1009.7 0.0
04/04:30pm 29.8 30.6 22.5 65 5.0 ESE 22 30 12 16 1009.8 1009.7 0.0
04/04:00pm 30.2 30.7 22.6 63 5.2 ESE 24 33 13 18 1009.7 1009.6 0.0
04/03:30pm 30.6 30.5 22.2 61 5.7 ESE 26 35 14 19 1009.8 1009.7 0.0
04/03:00pm 30.6 31.0 21.7 59 6.0 ESE 22 33 12 18 1009.8 1009.7 0.0
04/02:30pm 31.0 31.2 22.0 58 6.1 ESE 24 37 13 20 1010.0 1009.9 0.0
04/02:00pm 30.7 30.4 21.8 59 6.0 E 26 39 14 21 1010.4 1010.3 0.0
04/01:30pm 31.5 31.0 22.2 57 6.3 ESE 28 37 15 20 1010.6 1010.5 0.0
04/01:00pm 30.2 29.9 21.8 60 5.7 ESE 26 33 14 18 1011.0 1010.9 0.0
04/12:30pm 29.6 29.5 22.3 65 5.0 ESE 26 41 14 22 1011.3 1011.2 0.0
04/12:00pm 29.4 29.4 22.4 66 4.8 ESE 26 39 14 21 1011.6 1011.5 0.0
04/11:30am 31.0 31.0 23.1 63 5.4 ESE 28 37 15 20 1011.8 1011.7 0.0
04/11:00am 30.0 30.0 22.4 63 5.2 ESE 26 35 14 19 1012.1 1012.0 0.0
04/10:30am 30.3 30.4 22.5 63 5.3 ESE 26 37 14 20 1012.1 1012.0 0.0
04/10:00am 28.4 29.1 22.2 69 4.2 ESE 22 33 12 18 1012.3 1012.2 0.0
04/09:30am 28.3 27.6 21.1 65 4.8 SE 26 35 14 19 1012.0 1011.9 0.0
04/09:00am 29.5 29.7 21.4 61 5.4 SE 22 30 12 16 1011.9 1011.8 0.0
04/08:30am 28.1 29.2 21.9 69 4.2 SSE 19 30 10 16 1011.7 1011.6 0.0
04/08:00am 26.8 27.4 21.3 72 3.7 SSE 20 26 11 14 1011.7 1011.6 0.0
04/07:30am 25.8 26.9 21.2 76 3.0 S 17 22 9 12 1011.4 1011.3 0.0
04/07:00am 24.2 26.7 21.7 86 1.7 S 11 15 6 8 1011.2 1011.1 0.0
04/06:30am 22.8 24.9 20.9 89 1.2 S 11 13 6 7 1010.9 1010.8 0.0
04/06:00am 22.9 24.6 21.0 89 1.2 S 13 15 7 8 1010.8 1010.7 0.0
04/05:30am 23.2 25.0 21.1 88 1.4 S 13 17 7 9 1010.5 1010.4 0.0
04/05:00am 23.3 24.8 21.2 88 1.4 S 15 19 8 10 1010.2 1010.1 0.0
04/04:30am 23.4 24.5 21.3 88 1.4 S 17 20 9 11 1010.1 1010.0 0.0
04/04:00am 23.5 25.4 21.4 88 1.4 S 13 19 7 10 1010.2 1010.1 0.0
04/03:30am 23.1 25.3 21.2 89 1.2 S 11 15 6 8 1010.2 1010.1 0.0
04/03:00am 23.0 25.5 21.1 89 1.2 S 9 13 5 7 1010.3 1010.2 0.0
04/02:30am 22.9 24.8 21.4 91 1.0 S 13 19 7 10 1010.4 1010.3 0.0
04/02:00am 22.5 25.3 20.8 90 1.1 SSW 7 9 4 5 1010.8 1010.7 0.0
04/01:30am 22.9 25.2 21.4 91 1.0 S 11 13 6 7 1011.1 1011.0 0.0
04/01:00am 22.2 24.4 20.5 90 1.1 SSW 9 11 5 6 1011.5 1011.4 0.0
04/12:30am 23.0 25.0 20.7 87 1.5 SSW 11 15 6 8 1012.1 1012.0 0.0
04/12:00am 23.5 25.5 20.8 85 1.8 S 11 15 6 8 1012.3 1012.2 0.0
 
Date/Time
EST
Temp
°C
App
Temp
°C
Dew
Point
Rel
Hum
%
Delta-T
°C
Wind Press
QNH
hPa
Press
MSL
hPa
Rain
since 9 am
mm
Dir
 
Spd
km/h
Gust
km/h
Spd
kts
Gust
kts
03/11:30pm 23.2 25.3 20.9 87 1.5 S 11 15 6 8 1012.4 1012.3 0.0
03/11:00pm 22.9 25.1 20.4 86 1.6 SSW 9 9 5 5 1012.6 1012.5 0.0
03/10:30pm 23.6 25.8 20.3 82 2.1 S 9 11 5 6 1012.6 1012.5 0.0
03/10:00pm 24.6 26.8 20.3 77 2.8 S 9 13 5 7 1012.7 1012.6 0.0
03/09:30pm 25.3 26.8 20.5 75 3.1 SSE 13 19 7 10 1012.5 1012.4 0.0
03/09:00pm 25.8 27.3 20.6 73 3.4 SSE 13 19 7 10 1012.4 1012.3 0.0
03/08:30pm 25.9 27.8 20.5 72 3.5 S 11 17 6 9 1012.2 1012.1 0.0
03/08:00pm 26.4 27.7 21.6 75 3.2 SE 17 22 9 12 1011.7 1011.6 0.0
03/07:30pm 26.4 27.3 20.9 72 3.6 ESE 17 24 9 13 1011.3 1011.2 0.0
03/07:00pm 26.6 27.4 20.7 70 3.9 ESE 17 26 9 14 1011.1 1011.0 0.0
03/06:30pm 26.9 27.1 20.5 68 4.2 ESE 20 32 11 17 1010.6 1010.5 0.0
03/06:00pm 27.8 26.6 19.3 60 5.5 ESE 24 33 13 18 1010.4 1010.3 0.0
03/05:30pm 28.5 26.5 20.0 60 5.6 ESE 30 41 16 22 1009.9 1009.8 0.0
03/05:00pm 29.0 27.4 20.7 61 5.5 ESE 30 43 16 23 1009.8 1009.7 0.0
03/04:30pm 29.5 27.7 20.4 58 6.0 E 30 43 16 23 1009.7 1009.6 0.0
03/04:00pm 29.7 28.1 20.8 58 5.9 ESE 30 43 16 23 1009.6 1009.5 0.0
03/03:30pm 30.5 29.7 22.4 62 5.5 ESE 30 41 16 22 1009.7 1009.6 0.0
03/03:00pm 30.3 28.4 20.2 54 6.7 ESE 30 43 16 23 1009.8 1009.7 0.0
03/02:30pm 30.7 28.4 19.4 51 7.4 ESE 30 43 16 23 1009.9 1009.8 0.0
03/02:00pm 30.7 28.6 20.6 54 6.7 ESE 32 43 17 23 1010.2 1010.1 0.0
03/01:30pm 31.7 30.2 21.8 55 6.7 ESE 32 41 17 22 1010.6 1010.5 0.0
03/01:00pm 30.4 28.5 20.9 57 6.3 ESE 32 43 17 23 1011.0 1010.9 0.0
03/12:30pm 30.7 29.2 20.3 53 6.9 ESE 28 39 15 21 1011.3 1011.2 0.0
03/12:00pm 31.1 30.1 21.3 56 6.6 ESE 28 39 15 21 1011.8 1011.7 0.0
03/11:30am 30.3 28.9 20.5 55 6.5 SE 28 41 15 22 1012.2 1012.1 0.0
03/11:00am 30.6 29.5 21.1 57 6.4 SE 28 41 15 22 1012.4 1012.3 0.0
03/10:30am 30.6 29.1 20.2 53 6.9 ESE 28 41 15 22 1012.6 1012.5 0.0
03/10:00am 29.4 28.3 21.1 61 5.5 ESE 28 35 15 19 1012.7 1012.6 0.0
03/09:30am 28.4 26.9 20.9 64 5.0 SE 30 39 16 21 1012.4 1012.3 0.0
03/09:00am 29.4 29.4 22.4 66 4.8 SE 26 33 14 18 1012.4 1012.3 0.0
03/08:30am 28.5 29.4 21.5 66 4.7 SSE 19 28 10 15 1012.2 1012.1 0.0
03/08:00am 27.6 28.3 21.2 68 4.3 SSE 19 26 10 14 1011.9 1011.8 0.0
03/07:30am 26.6 28.3 21.6 74 3.3 SSE 15 19 8 10 1011.6 1011.5 0.0
03/07:00am 25.0 28.0 21.9 83 2.1 S 9 15 5 8 1011.5 1011.4 0.0
03/06:30am 24.7 26.4 21.6 83 2.1 S 15 19 8 10 1011.1 1011.0 0.0
03/06:00am 24.4 26.1 21.7 85 1.8 S 15 20 8 11 1010.8 1010.7 0.0
03/05:30am 24.3 26.7 21.6 85 1.8 S 11 15 6 8 1010.5 1010.4 0.0
03/05:00am 24.8 27.4 21.9 84 1.9 S 11 15 6 8 1010.3 1010.2 0.0
03/04:30am 24.4 26.8 22.3 88 1.4 S 13 15 7 8 1010.3 1010.2 0.0
03/04:00am 24.0 26.6 21.9 88 1.4 S 11 11 6 6 1010.1 1010.0 0.0
03/03:30am 24.7 27.4 22.2 86 1.7 S 11 15 6 8 1010.0 1009.9 0.0
03/03:00am 25.0 27.8 22.3 85 1.8 SSE 11 17 6 9 1010.0 1009.9 0.0
03/02:30am 24.2 27.3 22.1 88 1.4 SSW 9 11 5 6 1010.1 1010.0 0.0
03/02:00am 24.5 27.5 22.0 86 1.7 SSE 9 13 5 7 1010.2 1010.1 0.0
03/01:30am 24.8 27.5 22.1 85 1.8 SSE 11 17 6 9 1010.3 1010.2 0.0
03/01:00am 25.4 27.5 22.5 84 2.0 SSE 15 20 8 11 1010.5 1010.4 0.0
03/12:30am 24.4 27.6 22.3 88 1.4 S 9 11 5 6 1010.8 1010.7 0.0
03/12:00am 24.5 28.1 22.0 86 1.7 SSW 6 7 3 4 1011.2 1011.1 0.0
 
Date/Time
EST
Temp
°C
App
Temp
°C
Dew
Point
Rel
Hum
%
Delta-T
°C
Wind Press
QNH
hPa
Press
MSL
hPa
Rain
since 9 am
mm
Dir
 
Spd
km/h
Gust
km/h
Spd
kts
Gust
kts
02/11:30pm 25.2 28.3 22.1 83 2.1 SSE 9 13 5 7 1011.3 1011.2 0.0
02/11:00pm 25.4 29.0 22.1 82 2.2 SSE 6 9 3 5 1011.4 1011.3 0.0
02/10:30pm 25.9 28.9 22.0 79 2.6 S 9 11 5 6 1011.3 1011.2 0.0
02/10:00pm 26.5 27.9 21.9 76 3.1 SE 17 24 9 13 1011.0 1010.9 0.0
02/09:30pm 26.2 28.7 22.5 80 2.5 SE 13 19 7 10 1011.0 1010.9 0.0
02/09:00pm 26.0 29.1 22.9 83 2.1 ESE 11 15 6 8 1010.8 1010.7 0.0
02/08:30pm 25.7 29.4 22.6 83 2.1 ESE 7 11 4 6 1010.4 1010.3 0.0
02/08:00pm 25.5 28.5 22.0 81 2.3 ESE 9 11 5 6 1009.9 1009.8 0.0
02/07:30pm 26.0 28.7 22.1 79 2.6 ESE 11 15 6 8 1009.5 1009.4 0.0
02/07:00pm 26.5 28.8 22.1 77 3.0 ESE 13 17 7 9 1009.3 1009.2 0.0
02/06:30pm 27.1 28.5 21.8 73 3.5 ESE 17 24 9 13 1009.0 1008.9 0.0

Other Formats:

Comma delimited format used in spreadsheet applications
http://www.bom.gov.au/fwo/IDQ60801/IDQ60801.94365.axf

JavaScript Object Notation format (JSON) in row-major order
http://www.bom.gov.au/fwo/IDQ60801/IDQ60801.94365.json